createdAt,value
2022-12-01T00:01:09.237Z,17.20
2022-12-01T00:03:37.117Z,19.23
2022-12-01T00:06:05.982Z,17.60
2022-12-01T00:08:33.867Z,16.10
2022-12-01T00:11:06.641Z,17.63
2022-12-01T00:13:34.599Z,19.38
2022-12-01T00:16:14.824Z,18.00
2022-12-01T00:18:42.598Z,18.77
2022-12-01T00:21:19.593Z,19.33
2022-12-01T00:23:47.664Z,17.67
2022-12-01T00:26:15.635Z,18.27
2022-12-01T00:28:43.488Z,18.40
2022-12-01T00:31:11.647Z,18.27
2022-12-01T00:33:39.533Z,18.23
2022-12-01T00:36:07.699Z,19.40
2022-12-01T00:38:35.443Z,17.25
2022-12-01T00:41:03.293Z,17.77
2022-12-01T00:43:31.056Z,19.35
2022-12-01T00:45:58.803Z,18.30
2022-12-01T00:48:26.504Z,17.57
2022-12-01T00:50:54.307Z,20.52
2022-12-01T00:53:22.152Z,18.42
2022-12-01T00:55:49.948Z,18.33
2022-12-01T00:58:17.580Z,18.80
2022-12-01T01:00:45.264Z,18.38
2022-12-01T01:03:12.945Z,19.35
2022-12-01T01:05:41.009Z,19.33
2022-12-01T01:08:09.200Z,20.63
2022-12-01T01:10:40.291Z,20.38
2022-12-01T01:13:07.966Z,18.47
2022-12-01T01:15:35.731Z,19.00
2022-12-01T01:18:03.554Z,17.58
2022-12-01T01:20:32.431Z,18.63
2022-12-01T01:23:00.187Z,18.87
2022-12-01T01:25:27.789Z,21.20
2022-12-01T01:27:55.561Z,19.90
2022-12-01T01:30:23.246Z,19.63
2022-12-01T01:32:51.047Z,18.20
2022-12-01T01:35:18.803Z,18.23
2022-12-01T01:37:46.451Z,18.27
2022-12-01T01:40:14.103Z,18.90
2022-12-01T01:42:41.763Z,16.92
2022-12-01T01:45:17.682Z,18.77
2022-12-01T01:47:46.562Z,19.43
2022-12-01T01:50:14.639Z,19.45
2022-12-01T01:52:52.730Z,19.45
2022-12-01T01:55:20.456Z,18.27
2022-12-01T01:57:48.081Z,19.45
2022-12-01T02:00:16.884Z,20.92
2022-12-01T02:02:45.343Z,18.87
2022-12-01T02:05:13.978Z,18.98
2022-12-01T02:07:41.897Z,19.83
2022-12-01T02:10:10.352Z,18.17
2022-12-01T02:12:47.284Z,18.77
2022-12-01T02:15:24.063Z,17.73
2022-12-01T02:18:10.277Z,19.58
2022-12-01T02:20:37.988Z,17.83
2022-12-01T02:23:24.209Z,19.55
2022-12-01T02:26:03.923Z,19.45
2022-12-01T02:28:34.498Z,18.03
2022-12-01T02:31:04.268Z,19.13
2022-12-01T02:33:40.647Z,19.35
2022-12-01T02:36:27.152Z,19.67
2022-12-01T02:39:00.169Z,18.80
2022-12-01T02:41:29.734Z,18.75
2022-12-01T02:44:02.661Z,19.27
2022-12-01T02:46:32.179Z,20.13
2022-12-01T02:49:00.655Z,18.40
2022-12-01T02:51:30.940Z,19.00
2022-12-01T02:54:02.340Z,18.07
2022-12-01T02:56:30.101Z,18.52
2022-12-01T02:58:57.828Z,18.40
2022-12-01T03:01:44.016Z,19.35
2022-12-01T03:04:14.958Z,17.43
2022-12-01T03:06:42.622Z,16.75
2022-12-01T03:09:10.286Z,16.80
2022-12-01T03:11:51.610Z,18.23
2022-12-01T03:14:19.339Z,17.10
2022-12-01T03:16:53.352Z,17.33
2022-12-01T03:19:23.245Z,18.40
2022-12-01T03:21:53.498Z,17.60
2022-12-01T03:24:22.290Z,17.55
2022-12-01T03:26:51.954Z,17.92
2022-12-01T03:29:22.818Z,19.17
2022-12-01T03:31:53.227Z,18.25
2022-12-01T03:34:26.011Z,17.35
2022-12-01T03:37:13.918Z,18.70
2022-12-01T03:39:41.595Z,18.20
2022-12-01T03:42:17.500Z,18.17
2022-12-01T03:44:46.654Z,17.50
2022-12-01T03:47:15.804Z,16.33
2022-12-01T03:49:43.524Z,16.52
2022-12-01T03:52:20.144Z,17.23
2022-12-01T03:54:53.660Z,15.07
2022-12-01T03:57:24.207Z,13.70
2022-12-01T03:59:52.008Z,16.13
2022-12-01T04:02:19.788Z,13.60
2022-12-01T04:04:47.424Z,14.68
2022-12-01T04:07:15.200Z,14.02
2022-12-01T04:09:42.833Z,13.43
2022-12-01T04:12:29.866Z,11.27
2022-12-01T04:15:02.225Z,10.07
2022-12-01T04:17:30.006Z,9.13
2022-12-01T04:19:57.696Z,10.20
2022-12-01T04:22:25.533Z,8.80
2022-12-01T04:24:53.580Z,9.57
2022-12-01T04:27:21.374Z,8.17
2022-12-01T04:29:49.429Z,7.25
2022-12-01T04:32:17.298Z,6.95
2022-12-01T04:34:45.064Z,6.80
2022-12-01T04:37:13.089Z,5.63
2022-12-01T04:39:42.288Z,6.43
2022-12-01T04:42:10.098Z,5.55
2022-12-01T04:44:37.714Z,5.63
2022-12-01T04:47:05.782Z,5.05
2022-12-01T04:49:33.642Z,5.65
2022-12-01T04:52:01.301Z,4.67
2022-12-01T04:54:29.128Z,5.30
2022-12-01T04:56:56.915Z,5.53
2022-12-01T04:59:24.611Z,5.83
2022-12-01T05:01:52.257Z,4.88
2022-12-01T05:04:19.926Z,5.63
2022-12-01T05:06:47.611Z,5.72
2022-12-01T05:09:17.570Z,5.33
2022-12-01T05:11:48.009Z,5.15
2022-12-01T05:14:15.705Z,4.78
2022-12-01T05:16:43.464Z,4.43
2022-12-01T05:19:29.953Z,3.53
2022-12-01T05:21:57.583Z,3.90
2022-12-01T05:24:25.334Z,3.60
2022-12-01T05:26:53.066Z,3.92
2022-12-01T05:29:20.823Z,3.53
2022-12-01T05:31:48.597Z,3.63
2022-12-01T05:34:16.325Z,3.33
2022-12-01T05:36:44.005Z,3.45
2022-12-01T05:39:11.601Z,3.90
2022-12-01T05:41:39.303Z,4.03
2022-12-01T05:44:06.942Z,5.15
2022-12-01T05:46:34.692Z,4.70
2022-12-01T05:49:02.348Z,4.87
2022-12-01T05:51:30.066Z,4.75
2022-12-01T05:53:59.664Z,4.65
2022-12-01T05:56:27.466Z,4.88
2022-12-01T05:58:55.206Z,4.67
2022-12-01T06:01:23.068Z,4.55
2022-12-01T06:03:50.771Z,5.13
2022-12-01T06:06:18.542Z,5.83
2022-12-01T06:08:46.210Z,5.05
2022-12-01T06:11:13.936Z,5.20
2022-12-01T06:13:41.735Z,4.83
2022-12-01T06:16:09.533Z,4.88
2022-12-01T06:18:37.849Z,4.75
2022-12-01T06:21:05.936Z,4.45
2022-12-01T06:23:33.640Z,5.03
2022-12-01T06:26:01.291Z,4.60
2022-12-01T06:28:28.942Z,5.47
2022-12-01T06:31:02.928Z,4.77
2022-12-01T06:33:31.977Z,4.65
2022-12-01T06:36:00.363Z,4.82
2022-12-01T06:38:28.032Z,5.03
2022-12-01T06:40:55.803Z,4.85
2022-12-01T06:43:23.670Z,4.90
2022-12-01T06:45:54.133Z,4.75
2022-12-01T06:48:25.572Z,5.10
2022-12-01T06:50:53.203Z,3.80
2022-12-01T06:53:20.927Z,4.63
2022-12-01T06:55:48.622Z,4.37
2022-12-01T06:58:16.932Z,4.85
2022-12-01T07:00:49.064Z,4.38
2022-12-01T07:03:19.684Z,4.60
2022-12-01T07:05:56.001Z,4.70
2022-12-01T07:08:23.723Z,3.58
2022-12-01T07:11:00.793Z,3.88
2022-12-01T07:13:33.321Z,4.30
2022-12-01T07:16:03.117Z,3.97
2022-12-01T07:18:31.353Z,4.43
2022-12-01T07:21:06.107Z,4.50
2022-12-01T07:23:33.800Z,4.40
2022-12-01T07:26:05.273Z,4.38
2022-12-01T07:28:33.062Z,4.13
2022-12-01T07:31:07.476Z,4.03
2022-12-01T07:33:35.442Z,4.68
2022-12-01T07:36:03.159Z,4.57
2022-12-01T07:38:31.316Z,4.40
2022-12-01T07:41:02.608Z,4.95
2022-12-01T07:43:31.517Z,4.70
2022-12-01T07:46:04.713Z,4.67
2022-12-01T07:48:32.440Z,5.13
2022-12-01T07:51:00.184Z,4.63
2022-12-01T07:53:27.880Z,4.27
2022-12-01T07:55:55.514Z,4.70
2022-12-01T07:58:23.199Z,4.30
2022-12-01T08:00:50.835Z,4.50
2022-12-01T08:03:18.544Z,4.83
2022-12-01T08:05:46.180Z,4.20
2022-12-01T08:08:14.000Z,4.38
2022-12-01T08:10:41.730Z,4.70
2022-12-01T08:13:12.921Z,5.68
2022-12-01T08:15:44.829Z,5.80
2022-12-01T08:18:12.455Z,8.17
2022-12-01T08:20:40.155Z,7.47
2022-12-01T08:23:08.304Z,6.03
2022-12-01T08:25:36.002Z,4.40
2022-12-01T08:28:03.708Z,4.93
2022-12-01T08:30:32.690Z,4.25
2022-12-01T08:33:00.323Z,4.15
2022-12-01T08:35:28.114Z,4.13
2022-12-01T08:37:55.736Z,4.00
2022-12-01T08:40:23.492Z,4.13
2022-12-01T08:42:52.905Z,4.07
2022-12-01T08:45:20.858Z,4.60
2022-12-01T08:47:48.601Z,4.43
2022-12-01T08:50:16.439Z,4.63
2022-12-01T08:52:44.176Z,4.33
2022-12-01T08:55:11.860Z,5.38
2022-12-01T08:57:39.555Z,4.03
2022-12-01T09:00:07.843Z,4.70
2022-12-01T09:02:35.787Z,5.38
2022-12-01T09:05:03.520Z,5.15
2022-12-01T09:07:31.286Z,4.70
2022-12-01T09:09:58.924Z,4.80
2022-12-01T09:12:26.629Z,5.65
2022-12-01T09:14:54.262Z,5.03
2022-12-01T09:17:21.973Z,5.13
2022-12-01T09:19:49.797Z,5.13
2022-12-01T09:22:17.629Z,4.78
2022-12-01T09:24:45.375Z,5.13
2022-12-01T09:27:13.375Z,5.22
2022-12-01T09:29:41.088Z,5.00
2022-12-01T09:32:08.735Z,4.73
2022-12-01T09:34:36.436Z,4.78
2022-12-01T09:37:04.032Z,5.28
2022-12-01T09:39:31.742Z,4.97
2022-12-01T09:42:30.894Z,5.43
2022-12-01T09:45:02.908Z,4.70
2022-12-01T09:47:36.763Z,5.13
2022-12-01T09:50:08.341Z,4.90
2022-12-01T09:52:44.964Z,4.47
2022-12-01T09:55:13.068Z,5.47
2022-12-01T09:57:40.756Z,4.67
2022-12-01T10:00:12.516Z,4.90
2022-12-01T10:02:41.382Z,4.72
2022-12-01T10:05:13.445Z,5.32
2022-12-01T10:07:44.766Z,5.40
2022-12-01T10:10:16.313Z,4.55
2022-12-01T10:12:44.480Z,4.40
2022-12-01T10:15:35.218Z,4.10
2022-12-01T10:18:05.995Z,4.30
2022-12-01T10:20:45.193Z,4.05
2022-12-01T10:23:31.504Z,4.00
2022-12-01T10:25:59.843Z,3.80
2022-12-01T10:28:32.064Z,2.25
2022-12-01T10:31:12.509Z,5.32
2022-12-01T10:33:42.975Z,7.30
2022-12-01T10:36:10.900Z,6.68
2022-12-01T10:38:38.649Z,7.82
2022-12-01T10:41:06.991Z,9.23
2022-12-01T10:43:42.334Z,10.05
2022-12-01T10:46:20.750Z,7.15
2022-12-01T10:48:55.584Z,8.00
2022-12-01T10:51:23.316Z,10.77
2022-12-01T10:53:51.049Z,9.60
2022-12-01T10:56:22.012Z,7.55
2022-12-01T10:58:50.739Z,11.93
2022-12-01T11:01:23.269Z,9.32
2022-12-01T11:03:52.432Z,11.15
2022-12-01T11:06:23.967Z,11.43
2022-12-01T11:08:52.645Z,13.05
2022-12-01T11:11:27.785Z,11.73
2022-12-01T11:13:55.746Z,13.33
2022-12-01T11:16:54.127Z,12.88
2022-12-01T11:19:27.339Z,12.82
2022-12-01T11:21:58.844Z,13.30
2022-12-01T11:24:26.585Z,10.40
2022-12-01T11:26:54.240Z,11.13
2022-12-01T11:29:39.195Z,11.95
2022-12-01T11:32:32.889Z,12.03
2022-12-01T11:35:01.524Z,9.75
2022-12-01T11:37:32.819Z,12.13
2022-12-01T11:40:26.851Z,11.10
2022-12-01T11:42:55.210Z,11.45
2022-12-01T11:45:22.957Z,12.70
2022-12-01T11:48:00.884Z,12.27
2022-12-01T11:50:29.595Z,11.73
2022-12-01T11:52:57.279Z,11.70
2022-12-01T11:55:25.940Z,11.52
2022-12-01T11:57:54.379Z,10.33
2022-12-01T12:00:22.324Z,10.95
2022-12-01T12:02:56.811Z,12.98
2022-12-01T12:05:40.666Z,12.03
2022-12-01T12:08:31.828Z,12.73
2022-12-01T12:11:02.696Z,11.82
2022-12-01T12:13:48.879Z,12.55
2022-12-01T12:16:23.307Z,11.83
2022-12-01T12:19:14.885Z,12.02
2022-12-01T12:22:02.540Z,10.30
2022-12-01T12:24:32.913Z,10.77
2022-12-01T12:27:19.647Z,10.57
2022-12-01T12:29:47.744Z,11.30
2022-12-01T12:32:33.756Z,10.70
2022-12-01T12:35:01.409Z,11.48
2022-12-01T12:37:32.157Z,11.00
2022-12-01T12:40:11.817Z,9.77
2022-12-01T12:42:48.351Z,9.80
2022-12-01T12:45:30.871Z,10.55
2022-12-01T12:47:58.516Z,9.50
2022-12-01T12:50:29.026Z,9.23
2022-12-01T12:52:58.133Z,10.35
2022-12-01T12:55:25.812Z,10.43
2022-12-01T12:57:57.946Z,10.60
2022-12-01T13:00:26.768Z,10.68
2022-12-01T13:03:06.653Z,10.30
2022-12-01T13:05:36.381Z,11.00
2022-12-01T13:08:26.773Z,9.67
2022-12-01T13:11:25.409Z,10.80
2022-12-01T13:14:27.215Z,11.38
2022-12-01T13:17:20.915Z,13.07
2022-12-01T13:20:12.991Z,10.85
2022-12-01T13:23:01.060Z,10.95
2022-12-01T13:25:49.983Z,10.07
2022-12-01T13:28:39.350Z,9.30
2022-12-01T13:31:27.364Z,10.54
2022-12-01T13:33:55.219Z,11.65
2022-12-01T13:36:45.826Z,10.32
2022-12-01T13:39:20.874Z,7.70
2022-12-01T13:41:57.200Z,9.93
2022-12-01T13:44:28.692Z,11.85
2022-12-01T13:47:07.182Z,9.47
2022-12-01T13:49:44.920Z,9.40
2022-12-01T13:52:28.399Z,5.85
2022-12-01T13:55:08.378Z,10.23
2022-12-01T13:57:38.972Z,10.87
2022-12-01T14:00:06.960Z,6.80
2022-12-01T14:02:35.286Z,10.20
2022-12-01T14:05:21.811Z,11.17
2022-12-01T14:07:52.746Z,11.57
2022-12-01T14:10:32.685Z,10.55
2022-12-01T14:13:01.600Z,11.07
2022-12-01T14:15:42.363Z,10.55
2022-12-01T14:18:33.145Z,10.88
2022-12-01T14:21:01.249Z,11.52
2022-12-01T14:23:36.301Z,8.87
2022-12-01T14:26:15.920Z,10.52
2022-12-01T14:28:55.962Z,10.70
2022-12-01T14:31:24.156Z,11.70
2022-12-01T14:34:03.868Z,8.45
2022-12-01T14:36:42.515Z,11.00
2022-12-01T14:39:13.124Z,10.30
2022-12-01T14:41:40.754Z,6.95
2022-12-01T14:44:27.092Z,10.80
2022-12-01T14:46:57.691Z,10.48
2022-12-01T14:49:26.807Z,12.03
2022-12-01T14:51:57.641Z,10.88
2022-12-01T14:54:35.815Z,13.38
2022-12-01T14:57:09.062Z,13.33
2022-12-01T14:59:48.170Z,11.74
2022-12-01T15:02:15.850Z,14.88
2022-12-01T15:05:02.169Z,15.15
2022-12-01T15:07:29.891Z,14.50
2022-12-01T15:10:02.012Z,14.95
2022-12-01T15:12:29.947Z,13.77
2022-12-01T15:14:57.710Z,16.10
2022-12-01T15:17:32.115Z,15.80
2022-12-01T15:19:59.931Z,15.20
2022-12-01T15:22:31.232Z,17.60
2022-12-01T15:25:14.659Z,18.27
2022-12-01T15:27:43.587Z,17.35
2022-12-01T15:30:14.176Z,16.25
2022-12-01T15:32:43.277Z,16.17
2022-12-01T15:35:17.013Z,15.35
2022-12-01T15:37:44.917Z,16.75
2022-12-01T15:43:06.076Z,18.65
2022-12-01T15:45:43.140Z,16.25
2022-12-01T15:48:18.063Z,17.20
2022-12-01T15:50:47.323Z,17.30
2022-12-01T15:53:44.391Z,15.45
2022-12-01T15:56:12.132Z,16.10
2022-12-01T15:58:43.879Z,15.30
2022-12-01T16:01:11.655Z,16.40
2022-12-01T16:03:53.280Z,15.15
2022-12-01T16:06:21.459Z,17.43
2022-12-01T16:09:12.363Z,15.52
2022-12-01T16:11:40.386Z,15.82
2022-12-01T16:14:22.037Z,16.23
2022-12-01T16:16:50.162Z,16.08
2022-12-01T16:19:17.849Z,15.52
2022-12-01T16:21:45.635Z,14.73
2022-12-01T16:24:17.002Z,15.10
2022-12-01T16:26:48.670Z,13.98
2022-12-01T16:29:22.832Z,13.98
2022-12-01T16:32:19.740Z,15.40
2022-12-01T16:34:46.209Z,14.07
2022-12-01T16:37:14.514Z,15.90
2022-12-01T16:39:42.183Z,13.73
2022-12-01T16:42:17.193Z,13.23
2022-12-01T16:44:46.563Z,15.48
2022-12-01T16:47:15.567Z,14.73
2022-12-01T16:49:43.205Z,14.60
2022-12-01T16:54:59.999Z,13.63
2022-12-01T16:57:27.625Z,11.83
2022-12-01T16:59:55.314Z,14.23
2022-12-01T17:02:23.035Z,13.52
2022-12-01T17:04:50.955Z,12.83
2022-12-01T17:07:18.841Z,13.52
2022-12-01T17:09:46.516Z,13.65
2022-12-01T17:12:14.335Z,12.27
2022-12-01T17:14:42.035Z,12.60
2022-12-01T17:17:10.075Z,13.82
2022-12-01T17:19:37.728Z,13.15
2022-12-01T17:22:06.420Z,12.27
2022-12-01T17:24:34.057Z,13.45
2022-12-01T17:27:01.734Z,12.95
2022-12-01T17:29:29.415Z,11.63
2022-12-01T17:31:57.117Z,10.57
2022-12-01T17:34:27.136Z,10.25
2022-12-01T17:36:54.986Z,11.15
2022-12-01T17:39:22.664Z,11.77
2022-12-01T17:41:50.296Z,11.25
2022-12-01T17:44:17.961Z,12.35
2022-12-01T17:46:46.468Z,11.27
2022-12-01T17:49:14.201Z,11.05
2022-12-01T17:51:42.546Z,12.23
2022-12-01T17:54:10.354Z,9.63
2022-12-01T17:56:38.074Z,11.45
2022-12-01T17:59:06.957Z,12.57
2022-12-01T18:01:34.663Z,12.30
2022-12-01T18:04:02.497Z,11.67
2022-12-01T18:06:30.396Z,10.52
2022-12-01T18:08:58.147Z,10.02
2022-12-01T18:11:25.996Z,10.67
2022-12-01T18:13:54.245Z,11.05
2022-12-01T18:16:23.059Z,8.80
2022-12-01T18:18:53.319Z,5.70
2022-12-01T18:21:22.949Z,12.05
2022-12-01T18:23:58.343Z,9.30
2022-12-01T18:26:26.355Z,7.28
2022-12-01T18:28:55.418Z,9.73
2022-12-01T18:31:23.127Z,10.40
2022-12-01T18:33:57.558Z,9.95
2022-12-01T18:36:25.616Z,6.33
2022-12-01T18:38:54.660Z,10.07
2022-12-01T18:41:22.277Z,5.68
2022-12-01T18:43:50.174Z,9.77
2022-12-01T18:46:18.136Z,6.82
2022-12-01T18:48:46.397Z,10.35
2022-12-01T18:51:14.045Z,8.70
2022-12-01T18:53:41.782Z,7.70
2022-12-01T18:56:11.751Z,10.57
2022-12-01T18:58:39.905Z,8.88
2022-12-01T19:01:24.086Z,8.00
2022-12-01T19:03:55.476Z,6.90
2022-12-01T19:06:23.230Z,10.43
2022-12-01T19:08:50.992Z,7.07
2022-12-01T19:11:18.820Z,7.43
2022-12-01T19:13:46.638Z,7.82
2022-12-01T19:16:15.462Z,7.80
2022-12-01T19:18:45.862Z,6.50
2022-12-01T19:21:15.976Z,6.80
2022-12-01T19:23:43.754Z,8.32
2022-12-01T19:26:12.152Z,7.80
2022-12-01T19:28:40.658Z,8.60
2022-12-01T19:31:11.857Z,7.75
2022-12-01T19:33:40.030Z,11.10
2022-12-01T19:36:17.261Z,9.00
2022-12-01T19:38:46.506Z,5.57
2022-12-01T19:41:20.599Z,7.88
2022-12-01T19:43:48.837Z,7.87
2022-12-01T19:46:18.138Z,8.73
2022-12-01T19:48:46.291Z,9.25
2022-12-01T19:51:20.530Z,10.17
2022-12-01T19:53:48.331Z,9.55
2022-12-01T19:56:16.243Z,9.02
2022-12-01T19:58:44.023Z,7.93
2022-12-01T20:01:13.388Z,9.43
2022-12-01T20:03:42.160Z,7.22
2022-12-01T20:06:14.637Z,8.50
2022-12-01T20:08:42.489Z,7.40
2022-12-01T20:11:10.191Z,7.70
2022-12-01T20:13:38.811Z,7.13
2022-12-01T20:16:11.850Z,6.60
2022-12-01T20:18:39.667Z,8.25
2022-12-01T20:21:08.928Z,7.75
2022-12-01T20:23:39.155Z,7.40
2022-12-01T20:26:07.454Z,9.73
2022-12-01T20:28:35.395Z,8.20
2022-12-01T20:31:03.178Z,5.57
2022-12-01T20:33:30.914Z,8.10
2022-12-01T20:35:58.544Z,6.80
2022-12-01T20:38:27.856Z,7.53
2022-12-01T20:40:55.771Z,7.40
2022-12-01T20:43:23.612Z,7.40
2022-12-01T20:45:51.683Z,7.07
2022-12-01T20:48:19.335Z,8.67
2022-12-01T20:50:47.099Z,9.07
2022-12-01T20:53:14.697Z,10.30
2022-12-01T20:55:42.501Z,9.20
2022-12-01T20:58:10.416Z,7.20
2022-12-01T21:00:38.662Z,8.20
2022-12-01T21:03:06.385Z,8.30
2022-12-01T21:05:34.128Z,6.87
2022-12-01T21:08:02.091Z,7.78
2022-12-01T21:10:29.785Z,5.38
2022-12-01T21:13:18.322Z,8.13
2022-12-01T21:15:55.450Z,8.93
2022-12-01T21:18:27.172Z,7.30
2022-12-01T21:20:56.512Z,9.32
2022-12-01T21:23:24.700Z,9.00
2022-12-01T21:25:52.324Z,8.68
2022-12-01T21:28:21.141Z,7.35
2022-12-01T21:30:49.017Z,6.00
2022-12-01T21:33:18.060Z,7.53
2022-12-01T21:35:45.644Z,6.43
2022-12-01T21:38:17.696Z,6.90
2022-12-01T21:40:48.222Z,8.70
2022-12-01T21:43:17.719Z,7.25
2022-12-01T21:45:45.346Z,8.50
2022-12-01T21:48:21.447Z,6.30
2022-12-01T21:50:53.855Z,7.78
2022-12-01T21:53:21.929Z,8.40
2022-12-01T21:55:49.597Z,7.43
2022-12-01T21:58:17.325Z,5.03
2022-12-01T22:00:45.085Z,5.95
2022-12-01T22:03:15.922Z,5.40
2022-12-01T22:06:00.989Z,5.03
2022-12-01T22:08:32.658Z,6.47
2022-12-01T22:11:09.327Z,6.63
2022-12-01T22:13:41.211Z,9.70
2022-12-01T22:16:11.323Z,7.78
2022-12-01T22:18:39.186Z,8.00
2022-12-01T22:21:24.270Z,4.77
2022-12-01T22:23:58.429Z,7.75
2022-12-01T22:26:26.140Z,8.98
2022-12-01T22:28:54.543Z,7.53
2022-12-01T22:31:22.360Z,8.00
2022-12-01T22:33:50.947Z,7.70
2022-12-01T22:36:31.193Z,7.03
2022-12-01T22:38:58.926Z,6.77
2022-12-01T22:41:26.560Z,6.28
2022-12-01T22:43:57.691Z,5.80
2022-12-01T22:46:25.437Z,5.17
2022-12-01T22:48:56.850Z,6.63
2022-12-01T22:51:31.454Z,5.45
2022-12-01T22:54:00.624Z,3.70
2022-12-01T22:56:46.696Z,8.55
2022-12-01T22:59:21.729Z,5.60
2022-12-01T23:01:54.263Z,7.72
2022-12-01T23:04:28.801Z,8.63
2022-12-01T23:06:58.288Z,5.85
2022-12-01T23:09:37.907Z,7.40
2022-12-01T23:12:24.272Z,7.53
2022-12-01T23:14:53.600Z,8.70
2022-12-01T23:17:24.155Z,7.47
2022-12-01T23:19:52.554Z,6.73
2022-12-01T23:22:20.258Z,8.95
2022-12-01T23:24:48.152Z,6.20
2022-12-01T23:27:16.052Z,8.63
2022-12-01T23:29:43.642Z,7.83
2022-12-01T23:32:11.456Z,8.98
2022-12-01T23:34:39.101Z,5.85
2022-12-01T23:37:09.846Z,3.77
2022-12-01T23:39:37.441Z,6.05
2022-12-01T23:42:06.199Z,6.90
2022-12-01T23:44:40.562Z,6.60
2022-12-01T23:47:26.719Z,8.82
2022-12-01T23:50:02.336Z,6.93
2022-12-01T23:52:36.676Z,9.05
2022-12-01T23:55:08.874Z,7.57
2022-12-01T23:57:36.541Z,8.45
